Yellowstone Regional Airport
KCOD : rendu visible

Aérodrome :











RETROUVEZ-NOUS SUR...

 
LOGIN :

S'inscrire | Disclaimer

   EN    FR    IT 

 









Légende :    VFR   VFR Marginal   IFR   IFR Intensif   IFR Très Intensif
Visi : 
Plafond : 
>= 8 km
>= 3000ft
5 à 8 km
1000 à 3000 ft
1500m à 5 km
500 à 1000 ft
800 à 1500m
200 à 500 ft
< 800m
< 200 ft
Symboles :   Orages  Brouillard  Fortes neiges  Fortes précipitations  Vent > 20 kt






- Altitude de l'aérodrome : 5102 ft


KCOD - Yellowstone Regional

DERNIER METAR :
  • 072356Z AUTO 01012KT 10SM CLR 26/09 A2997 RMK AO2 SLP099 60000 T02610094 10317 20256 53002

METARs EXPIRÉS :
  • 072256Z AUTO 36012KT 10SM CLR 28/11 A2996 RMK AO2 SLP090 T02780106
  • 072156Z AUTO 02007G15KT 10SM FEW120 27/09 A2996 RMK AO2 SLP094 T02670089

TAF KCOD
Valide du 08 à 00h jusqu'au 09 à 00h UTC


072334Z 0800/0824 34010KT P6SM VCSH SCT120
FM080200 32010KT P6SM SCT150
FM080800 VRB04KT P6SM SKC
FM081700 26012G18KT P6SM SKC
FIR KZLC / Amérique du Nord



MET'MAP, la Météo Aéronautique d'un coup d'oeil ! - Copyright ORBIFLY Décembre 2007 - Disclaimer

ORBIFLY MET'MAP TEAM :

Programmation & Développement : Alexandra Zaïnal
Sur une idée originale de : Baudouin d'Aumeries
Assistance à la programmation : Marc-Olivier Méhu
Soutien technique & logistique : Manuel Goepfert

Contact : metmap@orbifly.com




SOURCES & CREDITS :

   NOAA       Earth
Advisory